createdAt,value
2018-01-18T00:01:19.672Z,88.89
2018-01-18T00:03:47.716Z,89.05
2018-01-18T00:09:06.195Z,88.40
2018-01-18T00:11:41.124Z,88.59
2018-01-18T00:14:14.955Z,88.54
2018-01-18T00:16:45.693Z,88.64
2018-01-18T00:19:17.287Z,88.49
2018-01-18T00:21:48.522Z,88.45
2018-01-18T00:24:19.233Z,88.51
2018-01-18T00:26:51.934Z,88.44
2018-01-18T00:29:20.925Z,88.55
2018-01-18T00:31:57.063Z,88.38
2018-01-18T00:34:27.112Z,88.26
2018-01-18T00:37:05.057Z,88.40
2018-01-18T00:39:33.958Z,88.10
2018-01-18T00:42:06.774Z,88.11
2018-01-18T00:44:36.973Z,88.12
2018-01-18T00:47:05.741Z,88.00
2018-01-18T00:49:35.053Z,88.28
2018-01-18T00:52:04.059Z,88.24
2018-01-18T00:54:32.116Z,88.44
2018-01-18T00:57:00.641Z,88.59
2018-01-18T00:59:31.072Z,88.69
2018-01-18T01:02:04.513Z,88.79
2018-01-18T01:04:32.805Z,88.62
2018-01-18T01:07:02.171Z,88.77
2018-01-18T01:09:30.126Z,88.94
2018-01-18T01:11:58.797Z,89.19
2018-01-18T01:14:26.990Z,88.89
2018-01-18T01:16:57.787Z,88.96
2018-01-18T01:19:35.978Z,88.93
2018-01-18T01:24:46.148Z,89.19
2018-01-18T01:27:20.386Z,89.07
2018-01-18T01:29:52.137Z,89.19
2018-01-18T01:32:22.200Z,89.14
2018-01-18T01:34:52.802Z,89.12
2018-01-18T01:37:31.271Z,89.12
2018-01-18T01:40:09.917Z,89.15
2018-01-18T01:42:39.458Z,89.13
2018-01-18T01:45:08.110Z,89.03
2018-01-18T01:47:40.337Z,88.95
2018-01-18T01:50:10.607Z,89.27
2018-01-18T01:55:14.328Z,89.17
2018-01-18T01:57:43.364Z,89.15
2018-01-18T02:00:11.528Z,89.43
2018-01-18T02:02:40.230Z,89.33
2018-01-18T02:07:51.581Z,89.35
2018-01-18T02:10:20.406Z,89.36
2018-01-18T02:12:51.206Z,89.50
2018-01-18T02:15:23.935Z,89.45
2018-01-18T02:17:59.501Z,89.44
2018-01-18T02:20:29.872Z,89.44
2018-01-18T02:22:58.102Z,89.49
2018-01-18T02:25:26.746Z,89.46
2018-01-18T02:27:55.309Z,89.57
2018-01-18T02:33:00.153Z,89.83
2018-01-18T02:35:32.614Z,89.81
2018-01-18T02:40:34.576Z,89.83
2018-01-18T02:43:03.068Z,89.93
2018-01-18T02:45:32.380Z,89.81
2018-01-18T02:48:01.145Z,89.77
2018-01-18T02:50:29.359Z,89.96
2018-01-18T02:53:00.204Z,89.66
2018-01-18T02:55:29.106Z,89.58
2018-01-18T02:57:59.906Z,89.87
2018-01-18T03:00:28.085Z,89.79
2018-01-18T03:02:56.002Z,90.00
2018-01-18T03:05:34.536Z,89.87
2018-01-18T03:08:03.797Z,89.97
2018-01-18T03:10:31.628Z,89.79
2018-01-18T03:13:00.672Z,89.70
2018-01-18T03:15:28.496Z,89.74
2018-01-18T03:17:58.020Z,89.95
2018-01-18T03:20:36.510Z,89.83
2018-01-18T03:23:04.600Z,89.96
2018-01-18T03:25:35.371Z,89.81
2018-01-18T03:28:06.182Z,89.57
2018-01-18T03:30:35.142Z,89.47
2018-01-18T03:33:04.461Z,89.49
2018-01-18T03:35:32.292Z,89.29
2018-01-18T03:38:00.860Z,89.42
2018-01-18T03:40:28.750Z,89.22
2018-01-18T03:42:56.576Z,89.18
2018-01-18T03:45:24.813Z,89.47
2018-01-18T03:47:53.729Z,89.51
2018-01-18T03:50:23.693Z,89.79
2018-01-18T03:52:59.437Z,89.83
2018-01-18T03:55:34.694Z,89.86
2018-01-18T03:58:04.659Z,89.84
2018-01-18T04:00:38.686Z,89.86
2018-01-18T04:03:06.822Z,89.84
2018-01-18T04:05:39.643Z,89.78
2018-01-18T04:08:09.418Z,89.65
2018-01-18T04:10:42.108Z,89.82
2018-01-18T04:13:14.324Z,89.76
2018-01-18T04:15:47.908Z,89.93
2018-01-18T04:18:18.485Z,89.68
2018-01-18T04:20:51.715Z,90.00
2018-01-18T07:20:13.507Z,97.80
2018-01-18T07:28:51.454Z,98.24
2018-01-18T07:37:25.910Z,99.47
2018-01-18T07:40:01.590Z,99.74
2018-01-18T07:42:32.973Z,99.96
2018-01-18T07:45:04.070Z,99.83
2018-01-18T07:47:37.782Z,99.79
2018-01-18T07:50:22.062Z,99.74
2018-01-18T07:53:02.165Z,99.70
2018-01-18T08:34:15.819Z,94.95
2018-01-18T08:36:46.975Z,94.65
2018-01-18T08:39:39.168Z,94.07
2018-01-18T08:45:17.162Z,92.74
2018-01-18T09:25:18.794Z,77.20
2018-01-18T09:28:06.023Z,75.20
